Time;durP1;ratioP1;P1;durP2;ratioP2;P2;SDS_P1;SDS_P2;PMS_P1;PMS_P2;Temp;Humidity;BMP_temperature;BMP_pressure;BME280_temperature;BME280_humidity;BME280_pressure;Samples;Min_cycle;Max_cycle;Signal;HPM_P1;HPM_P2
2022/03/30 00:02:05;;;;;;;21.52;10.93;;;13.70;90.80;;;;;;5077892;28;20024;-80
2022/03/30 00:04:31;;;;;;;21.73;10.00;;;13.70;90.90;;;;;;5096425;28;20051;-80
2022/03/30 00:06:57;;;;;;;24.00;10.90;;;13.70;90.90;;;;;;5078098;28;20376;-80
2022/03/30 00:09:22;;;;;;;19.55;9.82;;;13.70;91.30;;;;;;5078112;28;20474;-80
2022/03/30 00:11:53;;;;;;;18.10;10.13;;;13.70;91.00;;;;;;5078206;28;20027;-80
2022/03/30 00:14:19;;;;;;;23.85;10.68;;;13.70;91.00;;;;;;5078032;28;20034;-81
2022/03/30 00:16:45;;;;;;;22.00;10.02;;;13.70;91.00;;;;;;5078001;28;20024;-80
2022/03/30 00:19:10;;;;;;;20.33;10.23;;;13.70;91.10;;;;;;5077946;28;20028;-80
2022/03/30 00:21:37;;;;;;;22.73;10.80;;;13.70;91.10;;;;;;5077741;28;20040;-81
2022/03/30 00:24:03;;;;;;;26.73;10.65;;;13.70;91.20;;;;;;5096022;28;20070;-80
2022/03/30 00:26:28;;;;;;;22.30;10.43;;;13.60;91.20;;;;;;5095992;28;20036;-80
2022/03/30 00:28:54;;;;;;;17.67;10.00;;;13.60;91.30;;;;;;5077728;28;20020;-80
2022/03/30 00:31:21;;;;;;;21.73;10.57;;;13.60;91.20;;;;;;5078131;28;20044;-80
2022/03/30 00:33:48;;;;;;;21.45;10.55;;;13.70;91.30;;;;;;5077686;28;20115;-81
2022/03/30 00:36:13;;;;;;;22.42;10.75;;;13.60;91.30;;;;;;5078291;28;20131;-80
2022/03/30 00:38:39;;;;;;;21.02;10.00;;;13.60;91.40;;;;;;5077623;28;20435;-80
2022/03/30 00:41:05;;;;;;;20.58;10.93;;;13.60;91.40;;;;;;5095704;28;20093;-80
2022/03/30 00:43:30;;;;;;;21.25;11.00;;;13.60;91.50;;;;;;5077479;28;20020;-80
2022/03/30 00:45:56;;;;;;;19.27;11.18;;;13.60;91.50;;;;;;5077420;28;20472;-80
2022/03/30 00:48:22;;;;;;;21.25;10.70;;;13.60;91.60;;;;;;5077281;28;20020;-80
2022/03/30 00:50:47;;;;;;;25.40;10.77;;;13.60;91.50;;;;;;5095496;28;20017;-80
2022/03/30 00:53:13;;;;;;;18.02;9.68;;;13.60;91.60;;;;;;5095562;28;20031;-80
2022/03/30 00:55:39;;;;;;;23.27;10.07;;;13.60;91.60;;;;;;5095501;28;20486;-80
2022/03/30 00:58:06;;;;;;;26.80;11.00;;;13.60;91.60;;;;;;5095320;28;20472;-80
2022/03/30 01:00:32;;;;;;;18.85;9.73;;;13.50;91.60;;;;;;5095350;28;20020;-80
2022/03/30 01:02:58;;;;;;;18.05;9.95;;;13.60;91.70;;;;;;5077077;28;20016;-80
2022/03/30 01:05:24;;;;;;;18.27;10.20;;;13.50;91.70;;;;;;5095273;28;20486;-80
2022/03/30 01:07:50;;;;;;;23.13;10.32;;;13.50;92.10;;;;;;5095291;28;20024;-81
2022/03/30 01:10:17;;;;;;;19.27;9.93;;;13.50;91.80;;;;;;5077079;28;20024;-80
2022/03/30 01:12:43;;;;;;;20.00;10.40;;;13.50;91.90;;;;;;5094951;28;20415;-81
2022/03/30 01:15:11;;;;;;;21.13;10.48;;;13.50;91.90;;;;;;5076992;28;20458;-81
2022/03/30 01:17:37;;;;;;;19.48;10.50;;;13.50;92.00;;;;;;5095073;28;20050;-80
2022/03/30 01:20:08;;;;;;;23.73;10.40;;;13.50;92.10;;;;;;5095011;28;20095;-80
2022/03/30 01:22:34;;;;;;;21.75;10.40;;;13.50;92.00;;;;;;5076640;28;20052;-80
2022/03/30 01:25:00;;;;;;;22.85;10.13;;;13.40;91.90;;;;;;5094896;28;20071;-80
2022/03/30 01:27:26;;;;;;;21.25;10.23;;;13.40;92.00;;;;;;5094775;28;20475;-80
2022/03/30 01:32:36;;;;;;;21.60;10.20;;;13.40;92.00;;;;;;5095336;28;20544;-80
2022/03/30 01:35:04;;;;;;;14.80;8.82;;;13.40;92.00;;;;;;5076458;28;20028;-81
2022/03/30 01:37:31;;;;;;;19.15;9.52;;;13.40;92.00;;;;;;5076234;28;20081;-81
2022/03/30 01:39:59;;;;;;;19.15;9.32;;;13.40;92.10;;;;;;5076393;28;20107;-81
2022/03/30 01:42:26;;;;;;;20.85;9.80;;;13.40;92.20;;;;;;5076279;28;20073;-80
2022/03/30 01:44:53;;;;;;;17.80;9.32;;;13.40;92.20;;;;;;5094432;28;20065;-81
2022/03/30 01:47:19;;;;;;;16.58;9.25;;;13.40;92.20;;;;;;5076336;28;20398;-81
2022/03/30 01:49:46;;;;;;;19.15;9.23;;;13.40;92.20;;;;;;5094717;28;20023;-81
2022/03/30 01:52:13;;;;;;;22.05;9.95;;;13.40;92.30;;;;;;5094456;28;20027;-81
2022/03/30 01:54:41;;;;;;;21.45;10.82;;;13.30;92.30;;;;;;5076163;28;20115;-81
2022/03/30 01:57:08;;;;;;;19.88;9.57;;;13.30;92.40;;;;;;5094503;28;20440;-81
2022/03/30 01:59:34;;;;;;;16.95;9.60;;;13.30;92.40;;;;;;5076015;28;20025;-81
2022/03/30 02:02:02;;;;;;;20.25;9.85;;;13.30;92.40;;;;;;5075960;28;20021;-80
2022/03/30 02:04:28;;;;;;;17.73;9.93;;;13.30;92.50;;;;;;5076013;28;20028;-81
2022/03/30 02:06:54;;;;;;;17.63;9.63;;;13.30;92.40;;;;;;5075960;28;20019;-81
2022/03/30 02:09:20;;;;;;;15.27;9.45;;;13.30;92.50;;;;;;5075806;28;20376;-80
2022/03/30 02:11:46;;;;;;;22.75;10.45;;;13.30;92.50;;;;;;5093934;28;20032;-80
2022/03/30 02:14:11;;;;;;;18.45;9.82;;;13.30;92.50;;;;;;5094263;28;20447;-81
2022/03/30 02:16:37;;;;;;;19.13;10.18;;;13.30;92.50;;;;;;5093879;28;20051;-81
2022/03/30 02:19:03;;;;;;;21.50;10.00;;;13.30;92.60;;;;;;5093797;28;20132;-81
2022/03/30 02:21:29;;;;;;;23.48;10.35;;;13.30;92.70;;;;;;5093874;28;20044;-80
2022/03/30 02:23:55;;;;;;;15.38;9.63;;;13.30;92.70;;;;;;5075247;28;20028;-80
2022/03/30 02:26:20;;;;;;;22.48;9.73;;;13.30;92.70;;;;;;5075526;28;20027;-81
2022/03/30 02:28:51;;;;;;;20.65;9.85;;;13.30;92.80;;;;;;5075531;28;20479;-80
2022/03/30 02:31:18;;;;;;;23.83;9.57;;;13.20;92.80;;;;;;5075599;28;20024;-81
2022/03/30 02:33:44;;;;;;;18.27;9.77;;;13.20;92.70;;;;;;5075424;28;20032;-81
2022/03/30 02:36:10;;;;;;;16.50;9.32;;;13.20;92.70;;;;;;5075339;28;20031;-81
2022/03/30 02:38:36;;;;;;;20.23;9.27;;;13.20;92.70;;;;;;5075358;28;20020;-81
2022/03/30 02:41:03;;;;;;;20.73;9.88;;;13.20;92.80;;;;;;5075440;28;20387;-80
2022/03/30 02:43:28;;;;;;;19.08;9.77;;;13.20;92.90;;;;;;5075404;28;20391;-81
2022/03/30 02:45:54;;;;;;;22.10;10.10;;;13.20;92.90;;;;;;5093432;28;20051;-81
2022/03/30 02:48:22;;;;;;;18.38;9.00;;;13.20;92.80;;;;;;5075803;28;20024;-81
2022/03/30 02:50:51;;;;;;;18.33;9.88;;;13.20;92.90;;;;;;5075187;28;20027;-80
2022/03/30 02:53:18;;;;;;;20.17;9.45;;;13.20;93.20;;;;;;5075319;28;20391;-80
2022/03/30 02:55:44;;;;;;;19.67;9.95;;;13.20;93.20;;;;;;5075059;28;20088;-81
2022/03/30 02:58:11;;;;;;;15.88;8.60;;;13.20;93.10;;;;;;5075094;28;20483;-81
2022/03/30 03:00:38;;;;;;;23.73;10.10;;;13.20;93.40;;;;;;5093273;28;20026;-81
2022/03/30 03:03:04;;;;;;;19.02;10.00;;;13.20;93.40;;;;;;5075517;28;20023;-80
2022/03/30 03:05:33;;;;;;;17.25;9.32;;;13.20;93.50;;;;;;5093104;28;20095;-81
2022/03/30 03:08:03;;;;;;;20.35;10.38;;;13.20;93.70;;;;;;5074891;28;20024;-81
2022/03/30 03:10:29;;;;;;;15.57;8.68;;;13.10;93.80;;;;;;5093324;28;20027;-80
2022/03/30 03:12:55;;;;;;;22.67;9.77;;;13.10;93.90;;;;;;5074863;28;20032;-81
2022/03/30 03:15:22;;;;;;;20.65;9.40;;;13.10;94.00;;;;;;5074924;28;20031;-81
2022/03/30 03:17:48;;;;;;;19.83;9.27;;;13.10;94.10;;;;;;5074664;28;20059;-81
2022/03/30 03:20:14;;;;;;;21.63;9.40;;;13.10;94.50;;;;;;5074737;28;20027;-81
2022/03/30 03:22:40;;;;;;;19.17;8.63;;;13.10;94.50;;;;;;5074698;28;20040;-80
2022/03/30 03:25:06;;;;;;;22.60;10.02;;;13.10;94.50;;;;;;5092925;28;20424;-79
2022/03/30 03:27:32;;;;;;;16.42;9.35;;;13.00;94.80;;;;;;5074789;28;20031;-81
2022/03/30 03:29:59;;;;;;;23.70;10.38;;;13.10;94.90;;;;;;5092807;28;20411;-81
2022/03/30 03:32:24;;;;;;;19.33;9.30;;;13.10;94.90;;;;;;5092841;28;20031;-81
2022/03/30 03:34:50;;;;;;;19.30;9.30;;;13.10;95.10;;;;;;5094330;28;20024;-81
2022/03/30 03:37:16;;;;;;;18.35;10.18;;;13.00;95.20;;;;;;5096853;28;20028;-81
2022/03/30 03:39:42;;;;;;;23.02;9.98;;;13.00;95.50;;;;;;5096936;28;20028;-81
2022/03/30 03:42:08;;;;;;;19.90;10.05;;;13.00;95.70;;;;;;5078671;28;20024;-81
2022/03/30 03:44:34;;;;;;;16.85;9.50;;;13.00;95.70;;;;;;5096860;28;20027;-81
2022/03/30 03:47:00;;;;;;;18.80;9.77;;;13.00;95.70;;;;;;5096834;28;20078;-81
2022/03/30 03:49:26;;;;;;;19.85;10.23;;;13.00;95.70;;;;;;5078607;28;20051;-81
2022/03/30 03:51:51;;;;;;;21.27;9.70;;;13.00;95.90;;;;;;5096959;28;20516;-81
2022/03/30 03:54:17;;;;;;;20.48;9.85;;;13.00;96.00;;;;;;5096738;28;20032;-81
2022/03/30 03:56:43;;;;;;;16.95;9.30;;;13.00;96.00;;;;;;5078347;28;20670;-81
2022/03/30 03:59:10;;;;;;;20.77;9.75;;;13.00;96.10;;;;;;5079171;28;20034;-81
2022/03/30 04:01:35;;;;;;;20.88;8.20;;;13.00;96.10;;;;;;5078342;28;20056;-82
2022/03/30 04:04:02;;;;;;;17.73;9.35;;;13.00;96.10;;;;;;5078451;28;20475;-81
2022/03/30 04:06:29;;;;;;;19.75;9.20;;;13.00;96.20;;;;;;5078348;28;20020;-81
2022/03/30 04:08:55;;;;;;;16.85;9.10;;;12.90;96.30;;;;;;5078217;28;20024;-81
2022/03/30 04:11:20;;;;;;;17.17;9.52;;;12.90;96.30;;;;;;5078178;28;20032;-81
2022/03/30 04:13:46;;;;;;;22.92;9.57;;;13.00;96.40;;;;;;5096398;28;20020;-81
2022/03/30 04:16:12;;;;;;;14.73;8.73;;;12.90;96.50;;;;;;5077980;28;20020;-81
2022/03/30 04:18:38;;;;;;;19.73;9.10;;;12.90;96.50;;;;;;5096193;28;20020;-82
2022/03/30 04:21:03;;;;;;;19.05;9.00;;;12.90;96.60;;;;;;5096040;28;20040;-82
2022/03/30 04:23:29;;;;;;;18.10;9.30;;;12.90;96.70;;;;;;5078002;28;20021;-82
2022/03/30 04:25:55;;;;;;;16.60;9.00;;;12.90;96.60;;;;;;5096133;28;20024;-81
2022/03/30 04:28:20;;;;;;;21.48;9.65;;;12.90;96.70;;;;;;5077909;28;20020;-82
2022/03/30 04:30:46;;;;;;;16.65;8.48;;;12.90;96.90;;;;;;5077927;28;20046;-82
2022/03/30 04:33:12;;;;;;;17.67;8.85;;;12.90;96.90;;;;;;5096046;28;20142;-82
2022/03/30 04:35:38;;;;;;;21.92;8.75;;;12.90;97.10;;;;;;5077701;28;20031;-82
2022/03/30 04:38:05;;;;;;;16.77;8.60;;;12.90;97.00;;;;;;5077597;28;20035;-83
2022/03/30 04:40:32;;;;;;;18.50;8.50;;;12.90;97.30;;;;;;5077587;28;20102;-83
2022/03/30 04:42:58;;;;;;;20.85;9.52;;;12.90;97.40;;;;;;5077566;28;20048;-83
2022/03/30 04:45:24;;;;;;;15.63;8.90;;;12.90;97.60;;;;;;5077497;28;20119;-83
2022/03/30 04:47:53;;;;;;;19.48;9.48;;;12.90;97.70;;;;;;5076889;28;20089;-84
2022/03/30 04:50:18;;;;;;;17.48;9.18;;;12.90;97.80;;;;;;5077454;28;20054;-84
2022/03/30 04:52:44;;;;;;;19.40;8.27;;;12.90;97.90;;;;;;5077426;28;20038;-84
2022/03/30 04:55:11;;;;;;;23.00;9.38;;;12.80;97.80;;;;;;5077460;28;20024;-84
2022/03/30 04:57:38;;;;;;;14.48;8.10;;;12.80;98.00;;;;;;5077407;28;20081;-84
2022/03/30 05:00:05;;;;;;;20.08;8.43;;;12.80;98.20;;;;;;5077636;28;20028;-84
2022/03/30 05:02:32;;;;;;;18.83;9.18;;;12.80;98.10;;;;;;5077280;28;20020;-84
2022/03/30 05:04:58;;;;;;;21.83;9.25;;;12.80;98.30;;;;;;5077316;28;20498;-85
2022/03/30 05:07:24;;;;;;;15.48;8.75;;;12.80;98.20;;;;;;5095440;28;20110;-85
2022/03/30 05:09:50;;;;;;;19.38;9.07;;;12.80;98.30;;;;;;5077161;28;20024;-84
2022/03/30 05:12:16;;;;;;;19.27;9.15;;;12.80;98.50;;;;;;5077274;28;20032;-85
2022/03/30 05:14:41;;;;;;;23.55;8.50;;;12.80;98.50;;;;;;5077136;28;20024;-85
2022/03/30 05:17:08;;;;;;;20.52;9.18;;;12.80;98.60;;;;;;5077158;28;20051;-85
2022/03/30 05:19:34;;;;;;;16.15;9.05;;;12.80;98.60;;;;;;5095243;28;20099;-84
2022/03/30 05:22:01;;;;;;;19.35;8.32;;;12.80;98.70;;;;;;5076732;28;20139;-85
2022/03/30 05:24:26;;;;;;;15.63;8.73;;;12.80;98.80;;;;;;5076845;28;20484;-85
2022/03/30 05:26:53;;;;;;;17.67;8.23;;;12.80;98.90;;;;;;5095420;28;20034;-85
2022/03/30 05:29:20;;;;;;;24.70;9.38;;;12.80;98.90;;;;;;5094988;28;20020;-85
2022/03/30 05:31:45;;;;;;;18.77;8.75;;;12.80;99.10;;;;;;5076879;28;20024;-85
2022/03/30 05:34:11;;;;;;;21.10;8.35;;;12.80;99.00;;;;;;5076696;28;20089;-85
2022/03/30 05:36:37;;;;;;;15.73;8.10;;;12.70;99.00;;;;;;5076674;28;20024;-85
2022/03/30 05:39:03;;;;;;;19.02;8.27;;;12.70;99.20;;;;;;5094890;28;20490;-85
2022/03/30 05:41:30;;;;;;;22.52;8.90;;;12.70;99.10;;;;;;5076766;28;20020;-84
2022/03/30 05:43:56;;;;;;;18.65;9.20;;;12.70;99.20;;;;;;5076652;28;20027;-84
2022/03/30 05:46:21;;;;;;;18.73;8.02;;;12.70;99.20;;;;;;5094818;28;20418;-84
2022/03/30 05:48:47;;;;;;;20.02;8.93;;;12.70;99.30;;;;;;5076575;28;20388;-84
2022/03/30 05:51:13;;;;;;;18.15;9.07;;;12.70;99.30;;;;;;5076595;28;20591;-84
2022/03/30 05:53:39;;;;;;;20.90;9.15;;;12.70;99.30;;;;;;5076538;28;20027;-84
2022/03/30 05:56:05;;;;;;;24.60;8.80;;;12.70;99.40;;;;;;5076463;28;20028;-84
2022/03/30 05:58:31;;;;;;;20.48;9.07;;;12.60;99.40;;;;;;5093624;28;20029;-84
2022/03/30 06:00:56;;;;;;;19.05;8.18;;;12.70;99.50;;;;;;5076375;28;20433;-84
2022/03/30 06:03:22;;;;;;;16.27;9.02;;;12.60;99.50;;;;;;5076310;28;20065;-84
2022/03/30 06:05:50;;;;;;;18.25;8.43;;;12.70;99.50;;;;;;5076120;28;20048;-84
2022/03/30 06:08:16;;;;;;;14.50;7.88;;;12.60;99.50;;;;;;5076153;28;20024;-84
2022/03/30 06:10:43;;;;;;;13.95;8.35;;;12.70;99.70;;;;;;5076038;28;20020;-83
2022/03/30 06:13:08;;;;;;;24.48;8.90;;;12.70;99.60;;;;;;5076178;28;20229;-84
2022/03/30 06:15:36;;;;;;;21.23;8.45;;;12.60;99.60;;;;;;5075839;28;20136;-84
2022/03/30 06:18:03;;;;;;;18.88;9.25;;;12.60;99.80;;;;;;5075882;28;20433;-84
2022/03/30 06:20:29;;;;;;;17.23;8.25;;;12.60;99.90;;;;;;5075733;28;20027;-84
2022/03/30 06:22:55;;;;;;;18.10;8.10;;;12.60;99.90;;;;;;5075752;28;20044;-84
2022/03/30 06:25:22;;;;;;;21.45;8.68;;;12.60;99.90;;;;;;5075758;28;20089;-84
2022/03/30 06:27:48;;;;;;;17.73;8.07;;;12.60;99.90;;;;;;5093973;28;20024;-84
2022/03/30 06:30:14;;;;;;;15.40;8.73;;;12.60;99.90;;;;;;5075682;28;20031;-84
2022/03/30 06:32:40;;;;;;;19.60;8.48;;;12.60;99.90;;;;;;5075636;28;20028;-84
2022/03/30 06:35:07;;;;;;;21.85;9.52;;;12.60;99.90;;;;;;5059405;28;20039;-83
2022/03/30 06:37:32;;;;;;;21.27;9.25;;;12.60;99.90;;;;;;5093588;28;20470;-84
2022/03/30 06:39:58;;;;;;;16.23;8.02;;;12.60;99.90;;;;;;5093652;28;20023;-84
2022/03/30 06:42:24;;;;;;;21.45;9.18;;;12.60;99.90;;;;;;5093727;28;20028;-84
2022/03/30 06:44:50;;;;;;;21.98;9.65;;;12.60;99.90;;;;;;5075501;28;20479;-84
2022/03/30 06:47:16;;;;;;;20.50;9.25;;;12.60;99.90;;;;;;5075392;28;20077;-84
2022/03/30 06:49:42;;;;;;;25.92;9.85;;;12.60;99.90;;;;;;5075788;28;20127;-84
2022/03/30 06:52:09;;;;;;;23.02;9.20;;;12.60;99.90;;;;;;5075298;28;20062;-84
2022/03/30 06:54:36;;;;;;;18.38;8.88;;;12.50;99.90;;;;;;5075253;28;20027;-84
2022/03/30 06:57:03;;;;;;;23.50;9.57;;;12.50;99.90;;;;;;5093414;28;20031;-84
2022/03/30 06:59:29;;;;;;;21.35;8.73;;;12.60;99.90;;;;;;5075268;28;20016;-84
2022/03/30 07:01:55;;;;;;;23.67;8.90;;;12.60;99.90;;;;;;5093303;28;20086;-84
2022/03/30 07:04:24;;;;;;;24.70;9.07;;;12.60;99.90;;;;;;5075245;28;20325;-83
2022/03/30 07:12:19;;;;;;;25.90;9.45;;;12.50;99.90;;;;;;5093920;28;20035;-83
2022/03/30 07:14:46;;;;;;;22.75;9.13;;;12.50;99.90;;;;;;5075170;28;20028;-83
2022/03/30 07:17:13;;;;;;;20.55;8.65;;;12.50;99.90;;;;;;5074994;28;20348;-83
2022/03/30 07:19:40;;;;;;;24.27;8.95;;;12.50;99.90;;;;;;5074947;28;20020;-83
2022/03/30 07:22:06;;;;;;;20.17;8.93;;;12.50;99.90;;;;;;5075236;28;20040;-83
2022/03/30 07:24:32;;;;;;;22.73;8.23;;;12.50;99.90;;;;;;5074970;28;20515;-83
2022/03/30 07:26:57;;;;;;;20.95;9.32;;;12.50;99.90;;;;;;5093131;28;20102;-83
2022/03/30 07:29:23;;;;;;;26.92;9.15;;;12.50;99.90;;;;;;5074975;28;20050;-84
2022/03/30 07:31:49;;;;;;;22.63;8.73;;;12.50;99.90;;;;;;5074894;28;20048;-83
2022/03/30 07:34:15;;;;;;;20.52;8.32;;;12.50;99.90;;;;;;5075031;28;20024;-82
2022/03/30 07:36:40;;;;;;;25.38;9.30;;;12.50;99.90;;;;;;5074805;28;20024;-83
2022/03/30 07:39:06;;;;;;;19.85;8.38;;;12.50;99.90;;;;;;5074852;28;20074;-83
2022/03/30 07:41:32;;;;;;;23.17;8.30;;;12.50;99.90;;;;;;5092981;28;20027;-83
2022/03/30 07:43:57;;;;;;;21.45;7.97;;;12.50;99.90;;;;;;5074800;28;20441;-83
2022/03/30 07:46:23;;;;;;;23.13;8.70;;;12.50;99.90;;;;;;5074684;28;20519;-83
2022/03/30 07:48:49;;;;;;;26.13;8.80;;;12.50;99.90;;;;;;5074744;28;20039;-83
2022/03/30 07:51:15;;;;;;;22.48;8.48;;;12.40;99.90;;;;;;5074649;28;20471;-83
2022/03/30 07:53:40;;;;;;;27.90;9.02;;;12.50;99.90;;;;;;5075466;28;20020;-82
2022/03/30 07:56:06;;;;;;;19.20;7.25;;;12.50;99.90;;;;;;5092772;28;20027;-83
2022/03/30 07:58:32;;;;;;;20.80;8.20;;;12.50;99.90;;;;;;5092780;28;20020;-83
2022/03/30 08:00:57;;;;;;;27.05;8.13;;;12.50;99.90;;;;;;5074642;28;20020;-82
2022/03/30 08:03:23;;;;;;;24.15;9.27;;;12.50;99.90;;;;;;5074719;28;20069;-83
2022/03/30 08:05:49;;;;;;;20.48;7.95;;;12.50;99.90;;;;;;5074793;28;20107;-83
2022/03/30 08:08:14;;;;;;;23.65;8.00;;;12.50;99.90;;;;;;5093090;28;20036;-83
2022/03/30 08:10:40;;;;;;;25.73;8.50;;;12.50;99.90;;;;;;5074772;28;20021;-82
2022/03/30 08:13:06;;;;;;;24.55;8.40;;;12.50;99.90;;;;;;5074556;28;20021;-82
2022/03/30 08:15:33;;;;;;;25.58;8.75;;;12.50;99.90;;;;;;5074577;28;20020;-82
2022/03/30 08:17:58;;;;;;;22.60;8.07;;;12.40;99.90;;;;;;5074619;28;20115;-82
2022/03/30 08:23:09;;;;;;;30.38;8.30;;;12.40;99.90;;;;;;5096568;28;20047;-82
2022/03/30 08:25:35;;;;;;;22.83;7.45;;;12.50;99.90;;;;;;5078784;28;20017;-82
2022/03/30 08:28:02;;;;;;;23.92;8.75;;;12.40;99.90;;;;;;5077996;28;20020;-82
2022/03/30 08:30:28;;;;;;;29.00;8.25;;;12.50;99.90;;;;;;5077863;28;20137;-82
2022/03/30 08:32:54;;;;;;;23.67;8.57;;;12.40;99.90;;;;;;5077835;28;20028;-82
2022/03/30 08:35:21;;;;;;;24.85;8.48;;;12.40;99.90;;;;;;5096011;28;20028;-82
2022/03/30 08:37:47;;;;;;;32.13;8.68;;;12.40;99.90;;;;;;5077676;28;20058;-82
2022/03/30 08:40:13;;;;;;;30.38;8.57;;;12.40;99.90;;;;;;5077786;28;20048;-82
2022/03/30 08:42:40;;;;;;;25.80;8.20;;;12.40;99.90;;;;;;5077797;28;20028;-82
2022/03/30 08:45:07;;;;;;;22.95;7.78;;;12.50;99.90;;;;;;5077633;28;20025;-82
2022/03/30 08:47:34;;;;;;;29.70;7.85;;;12.40;99.90;;;;;;5077735;28;20043;-82
2022/03/30 08:50:01;;;;;;;23.60;7.70;;;12.40;99.90;;;;;;5077629;28;20031;-83
2022/03/30 08:52:26;;;;;;;23.65;7.47;;;12.40;99.90;;;;;;5077998;28;20039;-82
2022/03/30 08:54:52;;;;;;;25.08;8.60;;;12.40;99.90;;;;;;5077630;28;20039;-82
2022/03/30 08:57:19;;;;;;;19.63;8.23;;;12.40;99.90;;;;;;5077304;28;20032;-82
2022/03/30 09:00:04;;;;;;;20.85;8.02;;;12.40;99.90;;;;;;5095531;28;20016;-82
2022/03/30 09:03:01;;;;;;;20.85;7.50;;;12.40;99.90;;;;;;5077351;28;20024;-82
2022/03/30 09:05:30;;;;;;;21.55;7.63;;;12.40;99.90;;;;;;5088286;28;20043;-83
2022/03/30 09:08:19;;;;;;;29.23;7.95;;;12.40;99.90;;;;;;5077788;28;20042;-82
2022/03/30 09:10:47;;;;;;;22.13;7.28;;;12.40;99.90;;;;;;5095678;28;20055;-82
2022/03/30 09:13:15;;;;;;;18.80;7.30;;;12.40;99.90;;;;;;5077182;28;20024;-82
2022/03/30 09:15:41;;;;;;;18.98;7.60;;;12.40;99.90;;;;;;5077042;28;20024;-82
2022/03/30 09:18:09;;;;;;;24.42;8.90;;;12.40;99.90;;;;;;5076912;28;20027;-82
2022/03/30 09:20:40;;;;;;;21.52;8.13;;;12.40;99.90;;;;;;5077043;28;20119;-82
2022/03/30 09:23:09;;;;;;;22.73;8.40;;;12.40;99.90;;;;;;5076989;28;20406;-82
2022/03/30 09:25:35;;;;;;;21.38;7.30;;;12.40;99.90;;;;;;5095133;28;20417;-82
2022/03/30 09:28:02;;;;;;;20.30;6.57;;;12.40;99.90;;;;;;5076918;28;20020;-82
2022/03/30 09:30:29;;;;;;;23.55;7.43;;;12.40;99.90;;;;;;5076871;28;20475;-82
2022/03/30 09:32:57;;;;;;;21.30;7.25;;;12.50;99.90;;;;;;5076748;28;20072;-82
2022/03/30 09:35:27;;;;;;;24.38;7.30;;;12.40;99.90;;;;;;5094899;28;20145;-82
2022/03/30 09:38:02;;;;;;;20.75;7.10;;;12.50;99.90;;;;;;5076639;28;20437;-82
2022/03/30 09:40:58;;;;;;;21.98;6.88;;;12.40;99.90;;;;;;5076555;28;20024;-82
2022/03/30 09:43:25;;;;;;;17.13;6.95;;;12.50;99.90;;;;;;5076628;28;20057;-81
2022/03/30 09:46:06;;;;;;;16.10;6.50;;;12.50;99.90;;;;;;5076577;28;20027;-81
2022/03/30 09:48:35;;;;;;;22.40;7.50;;;12.50;99.90;;;;;;5095035;28;20019;-81
2022/03/30 09:51:06;;;;;;;17.98;6.63;;;12.50;99.90;;;;;;5094667;28;20443;-81
2022/03/30 09:53:34;;;;;;;16.65;6.63;;;12.50;99.90;;;;;;5076452;28;20024;-81
2022/03/30 09:56:08;;;;;;;16.60;6.55;;;12.50;99.90;;;;;;5094479;28;20020;-82
2022/03/30 09:58:36;;;;;;;17.98;6.10;;;12.50;99.90;;;;;;5076293;28;20051;-81
2022/03/30 10:01:14;;;;;;;20.08;6.80;;;12.50;99.90;;;;;;5076177;28;20472;-81
2022/03/30 10:03:51;;;;;;;18.15;6.68;;;12.50;99.90;;;;;;5076213;28;20119;-81
2022/03/30 10:06:26;;;;;;;14.00;5.78;;;12.50;99.90;;;;;;5094545;28;20064;-81
2022/03/30 10:08:53;;;;;;;15.10;6.45;;;12.50;99.90;;;;;;5076186;28;20073;-81
2022/03/30 10:11:20;;;;;;;17.73;5.70;;;12.50;99.90;;;;;;5075987;28;20073;-81
2022/03/30 10:13:54;;;;;;;15.40;6.10;;;12.50;99.90;;;;;;5094356;28;20101;-81
2022/03/30 10:16:21;;;;;;;17.50;6.07;;;12.50;99.90;;;;;;5094092;28;20016;-81
2022/03/30 10:18:51;;;;;;;16.85;6.43;;;12.50;99.90;;;;;;5075779;28;20391;-81
2022/03/30 10:21:47;;;;;;;13.70;6.28;;;12.50;99.90;;;;;;5076307;28;20326;-81
2022/03/30 10:24:50;;;;;;;15.27;5.53;;;12.50;99.90;;;;;;5075766;28;20016;-81
2022/03/30 10:27:50;;;;;;;15.88;5.88;;;12.60;99.90;;;;;;5075646;28;20031;-81
2022/03/30 10:30:29;;;;;;;13.30;5.85;;;12.60;99.90;;;;;;5075574;28;20127;-81
2022/03/30 10:32:58;;;;;;;14.73;6.20;;;12.60;99.90;;;;;;5075667;28;20070;-81
2022/03/30 10:35:47;;;;;;;15.25;5.38;;;12.70;99.90;;;;;;5075650;28;20028;-81
2022/03/30 10:38:14;;;;;;;16.08;5.85;;;12.70;99.90;;;;;;5076330;28;20031;-82
2022/03/30 10:40:41;;;;;;;11.88;5.85;;;12.70;99.90;;;;;;5093663;28;20023;-81
2022/03/30 10:43:24;;;;;;;13.05;5.32;;;12.70;99.90;;;;;;5075470;28;20016;-81
2022/03/30 10:45:57;;;;;;;19.13;5.85;;;12.60;99.90;;;;;;5074988;28;20028;-80
2022/03/30 10:48:28;;;;;;;13.75;5.80;;;12.60;99.90;;;;;;5075428;28;20028;-81
2022/03/30 10:51:08;;;;;;;14.77;5.63;;;12.70;99.90;;;;;;5075303;28;20093;-81
2022/03/30 10:53:33;;;;;;;20.30;5.82;;;12.70;99.90;;;;;;5093515;28;20067;-81
2022/03/30 10:56:14;;;;;;;14.45;5.93;;;12.70;99.90;;;;;;5075227;28;20483;-82
2022/03/30 10:58:49;;;;;;;13.80;5.80;;;12.70;99.90;;;;;;5075232;28;20360;-83
2022/03/30 11:01:21;;;;;;;15.82;6.05;;;12.70;99.90;;;;;;5075288;28;20024;-82
2022/03/30 11:03:57;;;;;;;12.90;5.75;;;12.70;99.90;;;;;;5075211;28;20551;-83
2022/03/30 11:06:24;;;;;;;19.45;5.65;;;12.70;99.90;;;;;;5075225;28;20020;-83
2022/03/30 11:08:51;;;;;;;16.90;5.95;;;12.70;99.90;;;;;;5093311;28;20376;-83
2022/03/30 11:11:20;;;;;;;16.40;5.55;;;12.60;99.90;;;;;;5075172;28;20024;-82
2022/03/30 11:13:46;;;;;;;11.98;5.63;;;12.60;99.90;;;;;;5075160;28;20119;-83
2022/03/30 11:16:12;;;;;;;14.75;5.70;;;12.60;99.90;;;;;;5075138;28;20103;-83
2022/03/30 11:19:02;;;;;;;12.45;5.35;;;12.60;99.90;;;;;;5075047;28;20443;-83
2022/03/30 11:21:28;;;;;;;12.35;5.60;;;12.50;99.90;;;;;;5071574;28;20101;-82
2022/03/30 11:23:55;;;;;;;12.00;5.30;;;12.50;99.90;;;;;;5088438;28;20024;-81
2022/03/30 11:26:23;;;;;;;10.98;5.65;;;12.50;99.90;;;;;;5088477;28;20502;-81
2022/03/30 11:28:49;;;;;;;16.65;5.78;;;12.50;99.90;;;;;;5088425;28;20043;-82
2022/03/30 11:31:20;;;;;;;9.82;4.72;;;12.50;99.90;;;;;;5088693;28;20021;-81
2022/03/30 11:34:38;;;;;;;11.15;5.13;;;12.40;99.90;;;;;;5088372;28;20368;-81
2022/03/30 11:37:08;;;;;;;13.68;4.97;;;12.40;99.90;;;;;;5017263;28;20033;-82
2022/03/30 11:39:34;;;;;;;13.43;5.93;;;12.40;99.90;;;;;;5088323;28;20017;-81
2022/03/30 11:42:01;;;;;;;17.23;5.45;;;12.40;99.90;;;;;;5088267;28;20021;-82
2022/03/30 11:47:16;;;;;;;10.75;5.30;;;12.40;99.90;;;;;;5072806;28;20035;-81
2022/03/30 11:49:50;;;;;;;13.13;5.60;;;12.40;99.90;;;;;;5088307;28;20442;-81
2022/03/30 11:52:17;;;;;;;11.82;5.57;;;12.40;99.90;;;;;;5088215;28;20020;-82
2022/03/30 11:54:51;;;;;;;12.18;5.82;;;12.40;99.90;;;;;;5072642;28;20032;-81
2022/03/30 11:57:20;;;;;;;;;;;12.40;99.90;;;;;;5090837;28;20028;-82
2022/03/30 11:59:56;;;;;;;12.13;5.20;;;12.50;99.90;;;;;;5075280;28;19909;-82
2022/03/30 12:02:24;;;;;;;14.75;6.15;;;12.40;99.90;;;;;;5076579;28;20491;-83
2022/03/30 12:04:50;;;;;;;7.78;5.32;;;12.50;99.90;;;;;;5076389;28;20021;-81
2022/03/30 12:07:19;;;;;;;12.23;5.90;;;12.50;99.90;;;;;;5092016;28;20031;-82
2022/03/30 12:09:55;;;;;;;12.90;6.50;;;12.50;99.90;;;;;;5091889;28;20033;-82
2022/03/30 12:12:35;;;;;;;11.48;5.97;;;12.50;99.90;;;;;;5076507;28;20443;-81
2022/03/30 12:15:21;;;;;;;16.10;5.90;;;12.50;99.90;;;;;;5076541;28;20056;-82
2022/03/30 12:17:57;;;;;;;14.98;6.15;;;12.50;99.90;;;;;;5091788;28;20500;-81
2022/03/30 12:20:28;;;;;;;14.45;6.35;;;12.50;99.90;;;;;;5091802;28;20016;-82
2022/03/30 12:23:15;;;;;;;13.65;6.53;;;12.40;99.90;;;;;;5091610;28;20040;-82
2022/03/30 12:25:41;;;;;;;18.60;7.13;;;12.50;99.90;;;;;;5076125;28;20102;-82
2022/03/30 12:28:07;;;;;;;14.68;6.68;;;12.40;99.90;;;;;;5091561;28;20024;-82
2022/03/30 12:30:36;;;;;;;11.15;6.40;;;12.40;99.90;;;;;;5091649;28;20088;-82
2022/03/30 12:33:02;;;;;;;11.18;6.22;;;12.40;99.90;;;;;;5091495;28;20032;-82
2022/03/30 12:35:34;;;;;;;10.48;6.05;;;12.40;99.90;;;;;;5091446;28;20495;-81
2022/03/30 12:38:14;;;;;;;10.90;6.03;;;12.30;99.90;;;;;;5075704;28;20025;-82
2022/03/30 12:40:42;;;;;;;8.63;5.38;;;12.30;99.90;;;;;;5091332;28;20119;-81
2022/03/30 12:43:08;;;;;;;12.95;6.20;;;12.30;99.90;;;;;;5091353;28;20498;-81
2022/03/30 12:45:46;;;;;;;12.65;6.28;;;12.30;99.90;;;;;;5091244;28;20051;-81
2022/03/30 12:48:12;;;;;;;8.07;4.45;;;12.30;99.90;;;;;;5091253;28;20024;-81
2022/03/30 12:50:38;;;;;;;7.47;4.60;;;12.30;99.90;;;;;;5091161;28;20031;-81
2022/03/30 12:53:05;;;;;;;6.55;4.60;;;12.30;99.90;;;;;;5075546;28;20028;-81
2022/03/30 12:55:34;;;;;;;9.52;4.70;;;12.30;99.90;;;;;;5075465;28;20116;-81